sensor_id;sensor_type;location;lat;lon;timestamp;temperature;humidity
38333;DHT22;25748;46.670;14.272;2022-10-23T00:01:15;12.10;84.10
38333;DHT22;25748;46.670;14.272;2022-10-23T00:03:41;12.10;84.00
38333;DHT22;25748;46.670;14.272;2022-10-23T00:06:07;12.10;84.10
38333;DHT22;25748;46.670;14.272;2022-10-23T00:08:35;12.10;84.30
38333;DHT22;25748;46.670;14.272;2022-10-23T00:11:05;12.00;83.90
38333;DHT22;25748;46.670;14.272;2022-10-23T00:13:31;12.10;84.10
38333;DHT22;25748;46.670;14.272;2022-10-23T00:15:57;12.00;83.90
38333;DHT22;25748;46.670;14.272;2022-10-23T00:18:22;12.00;83.70
38333;DHT22;25748;46.670;14.272;2022-10-23T00:20:48;12.00;83.50
38333;DHT22;25748;46.670;14.272;2022-10-23T00:23:15;12.00;83.10
38333;DHT22;25748;46.670;14.272;2022-10-23T00:25:41;11.90;82.80
38333;DHT22;25748;46.670;14.272;2022-10-23T00:28:07;11.90;82.80
38333;DHT22;25748;46.670;14.272;2022-10-23T00:30:32;11.90;83.00
38333;DHT22;25748;46.670;14.272;2022-10-23T00:32:58;11.80;83.00
38333;DHT22;25748;46.670;14.272;2022-10-23T00:35:24;11.80;82.90
38333;DHT22;25748;46.670;14.272;2022-10-23T00:37:49;11.80;82.80
38333;DHT22;25748;46.670;14.272;2022-10-23T00:40:15;11.70;82.80
38333;DHT22;25748;46.670;14.272;2022-10-23T00:42:41;11.70;82.80
38333;DHT22;25748;46.670;14.272;2022-10-23T00:47:44;11.70;83.00
38333;DHT22;25748;46.670;14.272;2022-10-23T00:50:10;11.70;83.10
38333;DHT22;25748;46.670;14.272;2022-10-23T00:52:41;11.70;83.20
38333;DHT22;25748;46.670;14.272;2022-10-23T00:55:09;11.70;83.20
38333;DHT22;25748;46.670;14.272;2022-10-23T00:57:37;11.70;83.10
38333;DHT22;25748;46.670;14.272;2022-10-23T01:00:05;11.60;82.90
38333;DHT22;25748;46.670;14.272;2022-10-23T01:02:31;11.60;83.00
38333;DHT22;25748;46.670;14.272;2022-10-23T01:04:57;11.60;82.70
38333;DHT22;25748;46.670;14.272;2022-10-23T01:13:16;11.50;82.20
38333;DHT22;25748;46.670;14.272;2022-10-23T01:18:47;11.40;82.20
38333;DHT22;25748;46.670;14.272;2022-10-23T01:21:16;11.40;82.30
38333;DHT22;25748;46.670;14.272;2022-10-23T01:32:21;11.30;82.90
38333;DHT22;25748;46.670;14.272;2022-10-23T01:37:45;11.20;83.20
38333;DHT22;25748;46.670;14.272;2022-10-23T01:40:32;11.20;83.20
38333;DHT22;25748;46.670;14.272;2022-10-23T01:43:05;11.20;83.40
38333;DHT22;25748;46.670;14.272;2022-10-23T01:46:00;11.20;83.10
38333;DHT22;25748;46.670;14.272;2022-10-23T01:48:28;11.20;83.00
38333;DHT22;25748;46.670;14.272;2022-10-23T01:50:58;11.20;83.00
38333;DHT22;25748;46.670;14.272;2022-10-23T01:53:27;11.10;83.00
38333;DHT22;25748;46.670;14.272;2022-10-23T01:55:56;11.10;83.00
38333;DHT22;25748;46.670;14.272;2022-10-23T01:58:24;11.10;83.00
38333;DHT22;25748;46.670;14.272;2022-10-23T02:00:52;11.10;83.00
38333;DHT22;25748;46.670;14.272;2022-10-23T02:03:20;11.10;83.00
38333;DHT22;25748;46.670;14.272;2022-10-23T02:05:47;11.10;82.90
38333;DHT22;25748;46.670;14.272;2022-10-23T02:08:13;11.10;83.20
38333;DHT22;25748;46.670;14.272;2022-10-23T02:18:59;11.10;83.10
38333;DHT22;25748;46.670;14.272;2022-10-23T02:21:41;11.10;83.20
38333;DHT22;25748;46.670;14.272;2022-10-23T02:24:13;11.00;83.20
38333;DHT22;25748;46.670;14.272;2022-10-23T02:26:56;11.00;83.30
38333;DHT22;25748;46.670;14.272;2022-10-23T02:31:49;11.10;83.70
38333;DHT22;25748;46.670;14.272;2022-10-23T02:34:15;11.10;83.90
38333;DHT22;25748;46.670;14.272;2022-10-23T02:36:41;11.10;84.00
38333;DHT22;25748;46.670;14.272;2022-10-23T02:39:07;11.10;84.10
38333;DHT22;25748;46.670;14.272;2022-10-23T02:41:48;11.10;84.00
38333;DHT22;25748;46.670;14.272;2022-10-23T02:47:39;11.10;83.60
38333;DHT22;25748;46.670;14.272;2022-10-23T02:52:50;11.10;83.60
38333;DHT22;25748;46.670;14.272;2022-10-23T02:58:13;11.10;83.70
38333;DHT22;25748;46.670;14.272;2022-10-23T03:00:44;11.10;83.90
38333;DHT22;25748;46.670;14.272;2022-10-23T03:03:18;11.10;83.90
38333;DHT22;25748;46.670;14.272;2022-10-23T03:05:44;11.10;84.00
38333;DHT22;25748;46.670;14.272;2022-10-23T03:08:12;11.10;84.10
38333;DHT22;25748;46.670;14.272;2022-10-23T03:10:39;11.10;84.20
38333;DHT22;25748;46.670;14.272;2022-10-23T03:13:05;11.10;84.20
38333;DHT22;25748;46.670;14.272;2022-10-23T03:15:31;11.10;84.20
38333;DHT22;25748;46.670;14.272;2022-10-23T03:17:56;11.10;84.20
38333;DHT22;25748;46.670;14.272;2022-10-23T03:20:22;11.10;84.20
38333;DHT22;25748;46.670;14.272;2022-10-23T03:22:48;11.20;84.10
38333;DHT22;25748;46.670;14.272;2022-10-23T03:25:14;11.10;84.10
38333;DHT22;25748;46.670;14.272;2022-10-23T03:27:39;11.20;84.10
38333;DHT22;25748;46.670;14.272;2022-10-23T03:30:05;11.20;83.90
38333;DHT22;25748;46.670;14.272;2022-10-23T03:32:39;11.10;83.80
38333;DHT22;25748;46.670;14.272;2022-10-23T03:35:06;11.10;83.80
38333;DHT22;25748;46.670;14.272;2022-10-23T03:37:31;11.10;83.70
38333;DHT22;25748;46.670;14.272;2022-10-23T03:39:57;11.10;83.70
38333;DHT22;25748;46.670;14.272;2022-10-23T03:42:24;11.10;83.80
38333;DHT22;25748;46.670;14.272;2022-10-23T03:44:50;11.10;83.80
38333;DHT22;25748;46.670;14.272;2022-10-23T03:47:15;11.10;83.80
38333;DHT22;25748;46.670;14.272;2022-10-23T03:49:41;11.10;83.70
38333;DHT22;25748;46.670;14.272;2022-10-23T03:52:07;11.10;83.70
38333;DHT22;25748;46.670;14.272;2022-10-23T03:54:33;11.10;83.70
38333;DHT22;25748;46.670;14.272;2022-10-23T03:57:00;11.10;83.70
38333;DHT22;25748;46.670;14.272;2022-10-23T03:59:26;11.10;83.60
38333;DHT22;25748;46.670;14.272;2022-10-23T04:01:52;11.10;83.50
38333;DHT22;25748;46.670;14.272;2022-10-23T04:04:18;11.10;83.50
38333;DHT22;25748;46.670;14.272;2022-10-23T04:06:43;11.00;83.40
38333;DHT22;25748;46.670;14.272;2022-10-23T04:09:09;11.10;83.40
38333;DHT22;25748;46.670;14.272;2022-10-23T04:11:35;11.00;83.40
38333;DHT22;25748;46.670;14.272;2022-10-23T04:14:01;11.00;83.30
38333;DHT22;25748;46.670;14.272;2022-10-23T04:16:26;11.00;83.30
38333;DHT22;25748;46.670;14.272;2022-10-23T04:18:52;11.00;83.30
38333;DHT22;25748;46.670;14.272;2022-10-23T04:21:18;11.00;83.20
38333;DHT22;25748;46.670;14.272;2022-10-23T04:23:44;11.00;83.60
38333;DHT22;25748;46.670;14.272;2022-10-23T04:26:10;11.00;83.20
38333;DHT22;25748;46.670;14.272;2022-10-23T04:28:35;11.00;83.10
38333;DHT22;25748;46.670;14.272;2022-10-23T04:31:01;11.00;83.10
38333;DHT22;25748;46.670;14.272;2022-10-23T04:33:27;11.00;83.00
38333;DHT22;25748;46.670;14.272;2022-10-23T04:35:53;11.00;82.90
38333;DHT22;25748;46.670;14.272;2022-10-23T04:38:18;11.00;83.00
38333;DHT22;25748;46.670;14.272;2022-10-23T04:40:44;10.90;82.90
38333;DHT22;25748;46.670;14.272;2022-10-23T04:43:10;11.00;83.10
38333;DHT22;25748;46.670;14.272;2022-10-23T04:45:36;10.90;83.10
38333;DHT22;25748;46.670;14.272;2022-10-23T04:48:02;10.90;83.20
38333;DHT22;25748;46.670;14.272;2022-10-23T04:50:27;10.90;83.30
38333;DHT22;25748;46.670;14.272;2022-10-23T04:52:54;11.00;83.40
38333;DHT22;25748;46.670;14.272;2022-10-23T04:55:20;10.90;83.40
38333;DHT22;25748;46.670;14.272;2022-10-23T04:57:46;10.90;83.40
38333;DHT22;25748;46.670;14.272;2022-10-23T05:00:13;10.90;83.40
38333;DHT22;25748;46.670;14.272;2022-10-23T05:02:40;10.90;83.40
38333;DHT22;25748;46.670;14.272;2022-10-23T05:05:06;10.90;83.60
38333;DHT22;25748;46.670;14.272;2022-10-23T05:07:33;10.90;83.70
38333;DHT22;25748;46.670;14.272;2022-10-23T05:09:58;10.90;83.70
38333;DHT22;25748;46.670;14.272;2022-10-23T05:12:24;10.90;83.50
38333;DHT22;25748;46.670;14.272;2022-10-23T05:14:51;10.90;83.50
38333;DHT22;25748;46.670;14.272;2022-10-23T05:17:21;10.90;83.60
38333;DHT22;25748;46.670;14.272;2022-10-23T05:19:52;10.90;83.50
38333;DHT22;25748;46.670;14.272;2022-10-23T05:22:19;10.90;83.50
38333;DHT22;25748;46.670;14.272;2022-10-23T05:24:45;10.90;83.50
38333;DHT22;25748;46.670;14.272;2022-10-23T05:27:11;10.80;83.40
38333;DHT22;25748;46.670;14.272;2022-10-23T05:29:37;10.90;83.40
38333;DHT22;25748;46.670;14.272;2022-10-23T05:32:04;10.90;83.40
38333;DHT22;25748;46.670;14.272;2022-10-23T05:34:32;10.80;83.40
38333;DHT22;25748;46.670;14.272;2022-10-23T05:37:01;10.90;83.50
38333;DHT22;25748;46.670;14.272;2022-10-23T05:39:27;10.90;83.30
38333;DHT22;25748;46.670;14.272;2022-10-23T05:41:53;10.90;83.10
38333;DHT22;25748;46.670;14.272;2022-10-23T05:44:20;10.80;83.20
38333;DHT22;25748;46.670;14.272;2022-10-23T05:46:46;10.80;83.00
38333;DHT22;25748;46.670;14.272;2022-10-23T05:49:11;10.80;83.00
38333;DHT22;25748;46.670;14.272;2022-10-23T05:51:39;10.80;82.90
38333;DHT22;25748;46.670;14.272;2022-10-23T05:54:05;10.80;83.00
38333;DHT22;25748;46.670;14.272;2022-10-23T05:56:35;10.80;82.90
38333;DHT22;25748;46.670;14.272;2022-10-23T05:59:01;10.90;82.80
38333;DHT22;25748;46.670;14.272;2022-10-23T06:01:27;10.80;82.70
38333;DHT22;25748;46.670;14.272;2022-10-23T06:03:53;10.90;82.90
38333;DHT22;25748;46.670;14.272;2022-10-23T06:06:19;10.80;82.90
38333;DHT22;25748;46.670;14.272;2022-10-23T06:08:44;10.80;82.90
38333;DHT22;25748;46.670;14.272;2022-10-23T06:11:12;10.80;82.90
38333;DHT22;25748;46.670;14.272;2022-10-23T06:13:40;10.80;82.90
38333;DHT22;25748;46.670;14.272;2022-10-23T06:16:18;10.80;83.00
38333;DHT22;25748;46.670;14.272;2022-10-23T06:18:45;10.80;83.00
38333;DHT22;25748;46.670;14.272;2022-10-23T06:21:12;10.80;83.10
38333;DHT22;25748;46.670;14.272;2022-10-23T06:23:40;10.80;83.10
38333;DHT22;25748;46.670;14.272;2022-10-23T06:26:08;10.90;83.20
38333;DHT22;25748;46.670;14.272;2022-10-23T06:28:34;10.90;83.30
38333;DHT22;25748;46.670;14.272;2022-10-23T06:31:06;10.90;83.40
38333;DHT22;25748;46.670;14.272;2022-10-23T06:33:32;10.90;83.30
38333;DHT22;25748;46.670;14.272;2022-10-23T06:35:57;10.90;83.30
38333;DHT22;25748;46.670;14.272;2022-10-23T06:38:23;10.90;83.30
38333;DHT22;25748;46.670;14.272;2022-10-23T06:40:55;11.00;83.30
38333;DHT22;25748;46.670;14.272;2022-10-23T06:43:21;11.00;83.30
38333;DHT22;25748;46.670;14.272;2022-10-23T06:45:47;11.00;83.30
38333;DHT22;25748;46.670;14.272;2022-10-23T06:48:13;11.10;83.20
38333;DHT22;25748;46.670;14.272;2022-10-23T06:50:39;11.10;83.00
38333;DHT22;25748;46.670;14.272;2022-10-23T06:53:05;11.10;82.90
38333;DHT22;25748;46.670;14.272;2022-10-23T06:55:32;11.10;82.90
38333;DHT22;25748;46.670;14.272;2022-10-23T06:57:58;11.10;82.90
38333;DHT22;25748;46.670;14.272;2022-10-23T07:00:24;11.10;83.00
38333;DHT22;25748;46.670;14.272;2022-10-23T07:02:50;11.10;83.10
38333;DHT22;25748;46.670;14.272;2022-10-23T07:05:17;11.20;83.10
38333;DHT22;25748;46.670;14.272;2022-10-23T07:07:43;11.20;83.10
38333;DHT22;25748;46.670;14.272;2022-10-23T07:10:12;11.30;83.30
38333;DHT22;25748;46.670;14.272;2022-10-23T07:12:37;11.30;83.30
38333;DHT22;25748;46.670;14.272;2022-10-23T07:15:03;11.40;83.30
38333;DHT22;25748;46.670;14.272;2022-10-23T07:17:29;11.40;83.10
38333;DHT22;25748;46.670;14.272;2022-10-23T07:19:54;11.40;82.90
38333;DHT22;25748;46.670;14.272;2022-10-23T07:22:20;11.50;83.00
38333;DHT22;25748;46.670;14.272;2022-10-23T07:24:46;11.60;82.90
38333;DHT22;25748;46.670;14.272;2022-10-23T07:27:11;11.60;82.70
38333;DHT22;25748;46.670;14.272;2022-10-23T07:29:37;11.70;82.80
38333;DHT22;25748;46.670;14.272;2022-10-23T07:32:03;11.70;82.70
38333;DHT22;25748;46.670;14.272;2022-10-23T07:34:29;11.80;82.50
38333;DHT22;25748;46.670;14.272;2022-10-23T07:36:56;11.80;82.20
38333;DHT22;25748;46.670;14.272;2022-10-23T07:39:21;11.90;82.40
38333;DHT22;25748;46.670;14.272;2022-10-23T07:41:47;11.90;82.00
38333;DHT22;25748;46.670;14.272;2022-10-23T07:44:13;11.90;81.50
38333;DHT22;25748;46.670;14.272;2022-10-23T07:46:39;12.00;81.50
38333;DHT22;25748;46.670;14.272;2022-10-23T07:49:05;12.00;81.30
38333;DHT22;25748;46.670;14.272;2022-10-23T07:51:31;12.00;81.10
38333;DHT22;25748;46.670;14.272;2022-10-23T07:53:56;12.10;81.20
38333;DHT22;25748;46.670;14.272;2022-10-23T07:56:24;12.10;81.00
38333;DHT22;25748;46.670;14.272;2022-10-23T07:58:51;12.10;80.80
38333;DHT22;25748;46.670;14.272;2022-10-23T08:01:30;12.10;80.70
38333;DHT22;25748;46.670;14.272;2022-10-23T08:03:57;12.10;80.60
38333;DHT22;25748;46.670;14.272;2022-10-23T08:06:24;12.10;80.60
38333;DHT22;25748;46.670;14.272;2022-10-23T08:08:49;12.20;80.60
38333;DHT22;25748;46.670;14.272;2022-10-23T08:11:17;12.10;80.50
38333;DHT22;25748;46.670;14.272;2022-10-23T08:13:49;12.10;80.40
38333;DHT22;25748;46.670;14.272;2022-10-23T08:16:15;12.20;80.60
38333;DHT22;25748;46.670;14.272;2022-10-23T08:18:41;12.20;80.50
38333;DHT22;25748;46.670;14.272;2022-10-23T08:21:07;12.20;80.60
38333;DHT22;25748;46.670;14.272;2022-10-23T08:23:34;12.30;80.50
38333;DHT22;25748;46.670;14.272;2022-10-23T08:26:04;12.30;80.40
38333;DHT22;25748;46.670;14.272;2022-10-23T08:28:31;12.40;80.30
38333;DHT22;25748;46.670;14.272;2022-10-23T08:30:57;12.50;80.20
38333;DHT22;25748;46.670;14.272;2022-10-23T08:33:24;12.60;80.10
38333;DHT22;25748;46.670;14.272;2022-10-23T08:35:50;12.70;79.80
38333;DHT22;25748;46.670;14.272;2022-10-23T08:38:16;12.80;79.00
38333;DHT22;25748;46.670;14.272;2022-10-23T08:40:47;12.80;78.80
38333;DHT22;25748;46.670;14.272;2022-10-23T08:43:36;12.90;78.20
38333;DHT22;25748;46.670;14.272;2022-10-23T08:46:16;13.00;77.30
38333;DHT22;25748;46.670;14.272;2022-10-23T08:48:50;13.00;77.20
38333;DHT22;25748;46.670;14.272;2022-10-23T08:51:40;13.10;76.70
38333;DHT22;25748;46.670;14.272;2022-10-23T08:54:24;13.10;76.50
38333;DHT22;25748;46.670;14.272;2022-10-23T08:57:03;13.10;75.20
38333;DHT22;25748;46.670;14.272;2022-10-23T08:59:43;13.10;75.40
38333;DHT22;25748;46.670;14.272;2022-10-23T09:02:20;13.20;75.50
38333;DHT22;25748;46.670;14.272;2022-10-23T09:04:50;13.20;74.60
38333;DHT22;25748;46.670;14.272;2022-10-23T09:09:54;13.20;74.70
38333;DHT22;25748;46.670;14.272;2022-10-23T09:12:27;13.20;74.80
38333;DHT22;25748;46.670;14.272;2022-10-23T09:17:44;13.30;74.80
38333;DHT22;25748;46.670;14.272;2022-10-23T09:22:35;13.40;74.30
38333;DHT22;25748;46.670;14.272;2022-10-23T09:25:01;13.40;74.50
38333;DHT22;25748;46.670;14.272;2022-10-23T09:27:27;13.40;74.20
38333;DHT22;25748;46.670;14.272;2022-10-23T09:29:54;13.40;73.00
38333;DHT22;25748;46.670;14.272;2022-10-23T09:32:32;13.40;73.00
38333;DHT22;25748;46.670;14.272;2022-10-23T09:34:58;13.50;73.20
38333;DHT22;25748;46.670;14.272;2022-10-23T09:37:29;13.50;72.60
38333;DHT22;25748;46.670;14.272;2022-10-23T09:42:53;13.40;70.30
38333;DHT22;25748;46.670;14.272;2022-10-23T09:45:32;13.50;71.40
38333;DHT22;25748;46.670;14.272;2022-10-23T09:48:11;13.60;71.50
38333;DHT22;25748;46.670;14.272;2022-10-23T09:50:40;13.60;71.10
38333;DHT22;25748;46.670;14.272;2022-10-23T09:53:15;13.70;70.50
38333;DHT22;25748;46.670;14.272;2022-10-23T09:55:41;13.70;70.00
38333;DHT22;25748;46.670;14.272;2022-10-23T09:58:35;13.70;70.20
38333;DHT22;25748;46.670;14.272;2022-10-23T10:01:02;13.90;70.70
38333;DHT22;25748;46.670;14.272;2022-10-23T10:03:28;13.90;69.80
38333;DHT22;25748;46.670;14.272;2022-10-23T10:05:59;13.90;70.20
38333;DHT22;25748;46.670;14.272;2022-10-23T10:11:40;14.10;69.40
38333;DHT22;25748;46.670;14.272;2022-10-23T10:14:30;14.20;69.90
38333;DHT22;25748;46.670;14.272;2022-10-23T10:28:40;14.60;68.00
38333;DHT22;25748;46.670;14.272;2022-10-23T10:47:51;15.70;65.50
38333;DHT22;25748;46.670;14.272;2022-10-23T10:56:09;16.40;61.40
38333;DHT22;25748;46.670;14.272;2022-10-23T10:58:40;16.60;61.50
38333;DHT22;25748;46.670;14.272;2022-10-23T11:01:23;16.70;60.80
38333;DHT22;25748;46.670;14.272;2022-10-23T11:03:55;16.70;60.00
38333;DHT22;25748;46.670;14.272;2022-10-23T11:06:23;16.80;59.00
38333;DHT22;25748;46.670;14.272;2022-10-23T11:08:50;16.90;59.30
38333;DHT22;25748;46.670;14.272;2022-10-23T11:11:21;17.00;58.90
38333;DHT22;25748;46.670;14.272;2022-10-23T11:13:49;17.00;58.40
38333;DHT22;25748;46.670;14.272;2022-10-23T11:16:28;17.30;59.10
38333;DHT22;25748;46.670;14.272;2022-10-23T11:19:05;17.50;59.40
38333;DHT22;25748;46.670;14.272;2022-10-23T11:21:42;17.70;58.10
38333;DHT22;25748;46.670;14.272;2022-10-23T11:37:20;18.10;57.00
38333;DHT22;25748;46.670;14.272;2022-10-23T11:47:58;18.40;55.60
38333;DHT22;25748;46.670;14.272;2022-10-23T11:50:30;18.40;55.70
38333;DHT22;25748;46.670;14.272;2022-10-23T11:53:02;18.60;55.60
38333;DHT22;25748;46.670;14.272;2022-10-23T11:55:30;18.70;56.00
38333;DHT22;25748;46.670;14.272;2022-10-23T11:58:27;18.90;55.50
38333;DHT22;25748;46.670;14.272;2022-10-23T12:01:16;19.10;55.40
38333;DHT22;25748;46.670;14.272;2022-10-23T12:03:56;19.00;54.80
38333;DHT22;25748;46.670;14.272;2022-10-23T12:06:31;19.10;56.10
38333;DHT22;25748;46.670;14.272;2022-10-23T12:09:06;19.20;54.90
38333;DHT22;25748;46.670;14.272;2022-10-23T12:11:45;19.30;54.30
38333;DHT22;25748;46.670;14.272;2022-10-23T12:14:26;19.00;53.80
38333;DHT22;25748;46.670;14.272;2022-10-23T12:16:52;18.90;54.30
38333;DHT22;25748;46.670;14.272;2022-10-23T12:19:21;18.70;54.40
38333;DHT22;25748;46.670;14.272;2022-10-23T12:21:54;18.60;54.70
38333;DHT22;25748;46.670;14.272;2022-10-23T12:24:48;18.60;54.60
38333;DHT22;25748;46.670;14.272;2022-10-23T12:30:19;18.20;55.00
38333;DHT22;25748;46.670;14.272;2022-10-23T12:33:03;18.10;55.30
38333;DHT22;25748;46.670;14.272;2022-10-23T12:38:18;17.80;55.80
38333;DHT22;25748;46.670;14.272;2022-10-23T12:40:49;17.80;56.20
38333;DHT22;25748;46.670;14.272;2022-10-23T12:43:25;17.80;56.50
38333;DHT22;25748;46.670;14.272;2022-10-23T12:45:51;17.70;55.90
38333;DHT22;25748;46.670;14.272;2022-10-23T12:48:21;17.80;56.20
38333;DHT22;25748;46.670;14.272;2022-10-23T12:50:52;18.00;56.50
38333;DHT22;25748;46.670;14.272;2022-10-23T12:53:19;18.10;56.30
38333;DHT22;25748;46.670;14.272;2022-10-23T12:58:25;18.30;55.90
38333;DHT22;25748;46.670;14.272;2022-10-23T13:00:56;18.20;56.00
38333;DHT22;25748;46.670;14.272;2022-10-23T13:03:24;18.30;55.60
38333;DHT22;25748;46.670;14.272;2022-10-23T13:05:51;18.10;55.60
38333;DHT22;25748;46.670;14.272;2022-10-23T13:08:19;18.20;55.30
38333;DHT22;25748;46.670;14.272;2022-10-23T13:10:46;18.10;55.30
38333;DHT22;25748;46.670;14.272;2022-10-23T13:13:13;18.10;55.60
38333;DHT22;25748;46.670;14.272;2022-10-23T13:15:43;18.20;55.80
38333;DHT22;25748;46.670;14.272;2022-10-23T13:18:10;18.20;55.90
38333;DHT22;25748;46.670;14.272;2022-10-23T13:23:32;18.50;55.80
38333;DHT22;25748;46.670;14.272;2022-10-23T13:26:03;18.50;55.60
38333;DHT22;25748;46.670;14.272;2022-10-23T13:28:42;18.50;55.60
38333;DHT22;25748;46.670;14.272;2022-10-23T13:33:46;18.60;55.10
38333;DHT22;25748;46.670;14.272;2022-10-23T13:38:44;18.70;56.00
38333;DHT22;25748;46.670;14.272;2022-10-23T13:41:16;18.60;55.40
38333;DHT22;25748;46.670;14.272;2022-10-23T13:43:42;18.70;55.50
38333;DHT22;25748;46.670;14.272;2022-10-23T13:46:20;18.70;55.40
38333;DHT22;25748;46.670;14.272;2022-10-23T13:48:46;18.60;55.10
38333;DHT22;25748;46.670;14.272;2022-10-23T13:51:24;18.70;55.20
38333;DHT22;25748;46.670;14.272;2022-10-23T13:53:51;18.60;55.70
38333;DHT22;25748;46.670;14.272;2022-10-23T13:56:18;18.70;55.90
38333;DHT22;25748;46.670;14.272;2022-10-23T13:58:44;18.70;55.70
38333;DHT22;25748;46.670;14.272;2022-10-23T14:01:39;18.70;55.70
38333;DHT22;25748;46.670;14.272;2022-10-23T14:04:06;18.70;55.90
38333;DHT22;25748;46.670;14.272;2022-10-23T14:06:40;18.80;55.70
38333;DHT22;25748;46.670;14.272;2022-10-23T14:09:14;18.80;55.50
38333;DHT22;25748;46.670;14.272;2022-10-23T14:11:41;18.70;55.60
38333;DHT22;25748;46.670;14.272;2022-10-23T14:14:07;18.70;55.30
38333;DHT22;25748;46.670;14.272;2022-10-23T14:16:33;18.60;55.20
38333;DHT22;25748;46.670;14.272;2022-10-23T14:18:58;18.60;55.60
38333;DHT22;25748;46.670;14.272;2022-10-23T14:21:24;18.50;55.40
38333;DHT22;25748;46.670;14.272;2022-10-23T14:23:56;18.60;55.50
38333;DHT22;25748;46.670;14.272;2022-10-23T14:26:24;18.60;54.90
38333;DHT22;25748;46.670;14.272;2022-10-23T14:28:54;18.50;55.30
38333;DHT22;25748;46.670;14.272;2022-10-23T14:31:20;18.60;55.40
38333;DHT22;25748;46.670;14.272;2022-10-23T14:33:50;18.60;55.40
38333;DHT22;25748;46.670;14.272;2022-10-23T14:36:22;18.60;55.00
38333;DHT22;25748;46.670;14.272;2022-10-23T14:38:49;18.60;55.30
38333;DHT22;25748;46.670;14.272;2022-10-23T14:41:18;18.50;55.50
38333;DHT22;25748;46.670;14.272;2022-10-23T14:43:44;18.50;55.50
38333;DHT22;25748;46.670;14.272;2022-10-23T14:46:19;18.40;55.30
38333;DHT22;25748;46.670;14.272;2022-10-23T14:48:48;18.30;55.40
38333;DHT22;25748;46.670;14.272;2022-10-23T14:51:22;18.10;55.70
38333;DHT22;25748;46.670;14.272;2022-10-23T14:53:54;18.10;56.00
38333;DHT22;25748;46.670;14.272;2022-10-23T14:56:24;18.10;56.00
38333;DHT22;25748;46.670;14.272;2022-10-23T14:58:52;18.00;56.00
38333;DHT22;25748;46.670;14.272;2022-10-23T15:01:18;17.90;56.10
38333;DHT22;25748;46.670;14.272;2022-10-23T15:03:44;17.80;56.40
38333;DHT22;25748;46.670;14.272;2022-10-23T15:06:10;17.80;56.10
38333;DHT22;25748;46.670;14.272;2022-10-23T15:08:36;17.80;56.30
38333;DHT22;25748;46.670;14.272;2022-10-23T15:11:03;17.70;56.70
38333;DHT22;25748;46.670;14.272;2022-10-23T15:13:32;17.60;56.70
38333;DHT22;25748;46.670;14.272;2022-10-23T15:16:04;17.60;56.90
38333;DHT22;25748;46.670;14.272;2022-10-23T15:18:30;17.50;57.00
38333;DHT22;25748;46.670;14.272;2022-10-23T15:20:56;17.40;57.10
38333;DHT22;25748;46.670;14.272;2022-10-23T15:23:22;17.40;57.20
38333;DHT22;25748;46.670;14.272;2022-10-23T15:25:58;17.30;57.40
38333;DHT22;25748;46.670;14.272;2022-10-23T15:28:28;17.20;57.70
38333;DHT22;25748;46.670;14.272;2022-10-23T15:30:55;17.10;57.90
38333;DHT22;25748;46.670;14.272;2022-10-23T15:33:24;17.10;58.00
38333;DHT22;25748;46.670;14.272;2022-10-23T15:35:50;17.00;58.30
38333;DHT22;25748;46.670;14.272;2022-10-23T15:38:19;16.90;58.70
38333;DHT22;25748;46.670;14.272;2022-10-23T15:40:54;16.80;58.80
38333;DHT22;25748;46.670;14.272;2022-10-23T15:43:30;16.70;59.10
38333;DHT22;25748;46.670;14.272;2022-10-23T15:45:56;16.60;59.20
38333;DHT22;25748;46.670;14.272;2022-10-23T15:48:22;16.50;59.40
38333;DHT22;25748;46.670;14.272;2022-10-23T15:50:49;16.40;59.30
38333;DHT22;25748;46.670;14.272;2022-10-23T15:53:18;16.30;59.60
38333;DHT22;25748;46.670;14.272;2022-10-23T15:55:44;16.10;59.80
38333;DHT22;25748;46.670;14.272;2022-10-23T15:58:10;16.00;59.90
38333;DHT22;25748;46.670;14.272;2022-10-23T16:00:36;15.90;59.90
38333;DHT22;25748;46.670;14.272;2022-10-23T16:03:03;15.80;60.30
38333;DHT22;25748;46.670;14.272;2022-10-23T16:05:28;15.70;60.60
38333;DHT22;25748;46.670;14.272;2022-10-23T16:07:57;15.60;60.80
38333;DHT22;25748;46.670;14.272;2022-10-23T16:10:22;15.40;61.10
38333;DHT22;25748;46.670;14.272;2022-10-23T16:12:49;15.40;61.60
38333;DHT22;25748;46.670;14.272;2022-10-23T16:15:15;15.30;61.70
38333;DHT22;25748;46.670;14.272;2022-10-23T16:17:40;15.20;61.60
38333;DHT22;25748;46.670;14.272;2022-10-23T16:20:06;15.10;61.60
38333;DHT22;25748;46.670;14.272;2022-10-23T16:22:35;14.90;61.90
38333;DHT22;25748;46.670;14.272;2022-10-23T16:25:00;14.80;61.90
38333;DHT22;25748;46.670;14.272;2022-10-23T16:27:26;14.70;61.80
38333;DHT22;25748;46.670;14.272;2022-10-23T16:29:52;14.60;62.10
38333;DHT22;25748;46.670;14.272;2022-10-23T16:32:17;14.50;62.50
38333;DHT22;25748;46.670;14.272;2022-10-23T16:34:44;14.40;62.90
38333;DHT22;25748;46.670;14.272;2022-10-23T16:37:10;14.20;63.50
38333;DHT22;25748;46.670;14.272;2022-10-23T16:39:36;14.10;63.70
38333;DHT22;25748;46.670;14.272;2022-10-23T16:42:02;14.00;64.70
38333;DHT22;25748;46.670;14.272;2022-10-23T16:44:28;13.90;64.60
38333;DHT22;25748;46.670;14.272;2022-10-23T16:46:54;13.80;64.60
38333;DHT22;25748;46.670;14.272;2022-10-23T16:49:20;13.80;64.90
38333;DHT22;25748;46.670;14.272;2022-10-23T16:51:46;13.70;64.90
38333;DHT22;25748;46.670;14.272;2022-10-23T16:54:12;13.70;65.30
38333;DHT22;25748;46.670;14.272;2022-10-23T16:56:39;13.60;65.40
38333;DHT22;25748;46.670;14.272;2022-10-23T16:59:05;13.50;65.60
38333;DHT22;25748;46.670;14.272;2022-10-23T17:01:41;13.50;66.10
38333;DHT22;25748;46.670;14.272;2022-10-23T17:04:07;13.40;66.10
38333;DHT22;25748;46.670;14.272;2022-10-23T17:06:36;13.40;66.50
38333;DHT22;25748;46.670;14.272;2022-10-23T17:09:05;13.30;66.90
38333;DHT22;25748;46.670;14.272;2022-10-23T17:11:36;13.20;66.80
38333;DHT22;25748;46.670;14.272;2022-10-23T17:14:14;13.20;67.00
38333;DHT22;25748;46.670;14.272;2022-10-23T17:16:46;13.00;67.90
38333;DHT22;25748;46.670;14.272;2022-10-23T17:19:12;12.90;67.70
38333;DHT22;25748;46.670;14.272;2022-10-23T17:21:40;12.90;68.40
38333;DHT22;25748;46.670;14.272;2022-10-23T17:24:07;12.80;69.40
38333;DHT22;25748;46.670;14.272;2022-10-23T17:26:34;12.80;69.30
38333;DHT22;25748;46.670;14.272;2022-10-23T17:29:02;12.80;69.80
38333;DHT22;25748;46.670;14.272;2022-10-23T17:31:33;12.70;69.70
38333;DHT22;25748;46.670;14.272;2022-10-23T17:34:02;12.60;70.10